createdAt,value
2022-09-02T00:01:46.070Z,1.55
2022-09-02T00:04:31.908Z,9.32
2022-09-02T00:06:58.674Z,2.63
2022-09-02T00:09:26.583Z,2.88
2022-09-02T00:11:55.283Z,2.67
2022-09-02T00:14:34.027Z,2.95
2022-09-02T00:17:01.299Z,2.58
2022-09-02T00:19:29.590Z,7.05
2022-09-02T00:21:57.733Z,2.47
2022-09-02T00:24:25.342Z,2.13
2022-09-02T00:26:56.496Z,1.73
2022-09-02T00:29:24.462Z,1.65
2022-09-02T00:31:51.996Z,1.67
2022-09-02T00:34:20.776Z,6.20
2022-09-02T00:36:47.798Z,1.98
2022-09-02T00:39:14.793Z,1.63
2022-09-02T00:41:43.613Z,1.60
2022-09-02T00:44:14.029Z,2.08
2022-09-02T00:46:44.045Z,2.10
2022-09-02T00:49:26.508Z,2.00
2022-09-02T00:52:03.263Z,3.08
2022-09-02T00:54:32.877Z,2.40
2022-09-02T00:57:11.029Z,2.38
2022-09-02T00:59:48.838Z,1.83
2022-09-02T01:02:16.344Z,1.67
2022-09-02T01:04:46.928Z,2.15
2022-09-02T01:07:14.907Z,2.30
2022-09-02T01:09:42.835Z,1.95
2022-09-02T01:12:12.846Z,1.60
2022-09-02T01:14:39.685Z,1.33
2022-09-02T01:17:07.967Z,1.25
2022-09-02T01:19:40.992Z,1.42
2022-09-02T01:22:18.554Z,1.52
2022-09-02T01:24:45.546Z,1.45
2022-09-02T01:27:21.516Z,1.70
2022-09-02T01:29:59.865Z,1.50
2022-09-02T01:32:34.964Z,1.23
2022-09-02T01:35:02.184Z,1.42
2022-09-02T01:37:29.050Z,1.80
2022-09-02T01:40:02.329Z,1.83
2022-09-02T01:42:29.612Z,1.60
2022-09-02T01:44:56.431Z,1.35
2022-09-02T01:47:26.713Z,1.27
2022-09-02T01:49:54.781Z,1.88
2022-09-02T01:52:24.501Z,1.85
2022-09-02T01:54:51.789Z,1.27
2022-09-02T01:57:19.482Z,1.38
2022-09-02T01:59:46.680Z,0.88
2022-09-02T02:02:14.751Z,0.90
2022-09-02T02:04:49.520Z,1.05
2022-09-02T02:07:21.205Z,1.17
2022-09-02T02:09:51.053Z,1.00
2022-09-02T02:12:19.904Z,1.38
2022-09-02T02:14:47.028Z,0.88
2022-09-02T02:17:14.530Z,1.02
2022-09-02T02:19:41.520Z,1.02
2022-09-02T02:22:11.422Z,1.35
2022-09-02T02:24:38.939Z,0.88
2022-09-02T02:27:05.820Z,1.25
2022-09-02T02:29:32.785Z,1.55
2022-09-02T02:31:59.616Z,1.20
2022-09-02T02:34:26.550Z,1.00
2022-09-02T02:36:53.367Z,1.13
2022-09-02T02:39:20.374Z,0.90
2022-09-02T02:41:47.680Z,0.70
2022-09-02T02:44:14.608Z,1.23
2022-09-02T02:46:41.738Z,1.27
2022-09-02T02:49:08.744Z,1.35
2022-09-02T02:51:35.923Z,1.10
2022-09-02T02:54:04.092Z,1.45
2022-09-02T02:56:31.336Z,0.93
2022-09-02T02:59:01.583Z,0.88
2022-09-02T03:01:28.471Z,0.77
2022-09-02T03:03:58.852Z,1.00
2022-09-02T03:06:26.564Z,1.00
2022-09-02T03:09:00.798Z,1.02
2022-09-02T03:11:28.689Z,1.30
2022-09-02T03:13:55.754Z,0.88
2022-09-02T03:16:22.957Z,0.75
2022-09-02T03:18:50.708Z,1.00
2022-09-02T03:21:18.365Z,2.05
2022-09-02T03:23:50.394Z,1.23
2022-09-02T03:26:20.745Z,0.98
2022-09-02T03:28:48.774Z,1.33
2022-09-02T03:31:21.812Z,0.80
2022-09-02T03:33:48.964Z,0.82
2022-09-02T03:36:31.475Z,3.78
2022-09-02T03:38:59.437Z,2.15
2022-09-02T03:41:26.396Z,1.00
2022-09-02T03:43:53.219Z,0.85
2022-09-02T03:46:20.241Z,1.05
2022-09-02T03:48:53.010Z,0.85
2022-09-02T03:53:47.267Z,0.90
2022-09-02T03:56:15.784Z,1.20
2022-09-02T03:58:45.585Z,0.88
2022-09-02T04:01:21.477Z,0.90
2022-09-02T04:03:49.017Z,1.88
2022-09-02T04:06:18.823Z,1.77
2022-09-02T04:08:46.203Z,0.68
2022-09-02T04:11:17.922Z,3.50
2022-09-02T04:13:49.136Z,1.60
2022-09-02T04:16:20.020Z,0.77
2022-09-02T04:18:48.553Z,1.27
2022-09-02T04:21:17.035Z,0.70
2022-09-02T04:23:43.871Z,0.85
2022-09-02T04:26:13.591Z,0.75
2022-09-02T04:28:41.035Z,3.00
2022-09-02T04:31:10.255Z,1.40
2022-09-02T04:33:38.102Z,1.20
2022-09-02T04:36:24.983Z,1.13
2022-09-02T04:38:57.601Z,0.90
2022-09-02T04:41:28.243Z,0.85
2022-09-02T04:43:56.693Z,0.90
2022-09-02T04:46:34.278Z,1.08
2022-09-02T04:49:03.523Z,1.50
2022-09-02T04:51:30.735Z,0.90
2022-09-02T04:54:05.879Z,1.17
2022-09-02T04:56:32.793Z,1.10
2022-09-02T04:59:00.630Z,0.88
2022-09-02T05:01:34.718Z,0.90
2022-09-02T05:04:03.402Z,2.35
2022-09-02T05:06:30.314Z,1.27
2022-09-02T05:08:58.426Z,0.93
2022-09-02T05:11:29.974Z,0.90
2022-09-02T05:14:00.036Z,0.80
2022-09-02T05:16:32.400Z,1.40
2022-09-02T05:18:59.895Z,1.10
2022-09-02T05:21:26.734Z,1.67
2022-09-02T05:23:54.636Z,1.33
2022-09-02T05:26:22.841Z,1.20
2022-09-02T05:28:50.010Z,1.10
2022-09-02T05:31:19.560Z,1.02
2022-09-02T05:33:46.983Z,1.02
2022-09-02T05:36:17.117Z,1.45
2022-09-02T05:38:45.120Z,1.98
2022-09-02T05:41:17.809Z,1.05
2022-09-02T05:46:17.843Z,1.10
2022-09-02T05:49:04.438Z,1.25
2022-09-02T05:51:32.204Z,1.45
2022-09-02T05:54:00.639Z,1.70
2022-09-02T05:56:27.989Z,1.83
2022-09-02T05:58:59.188Z,1.23
2022-09-02T06:01:28.619Z,1.10
2022-09-02T06:03:56.271Z,1.52
2022-09-02T06:06:24.006Z,1.77
2022-09-02T06:08:51.505Z,1.40
2022-09-02T06:11:18.704Z,1.30
2022-09-02T06:13:46.822Z,1.30
2022-09-02T06:16:18.475Z,1.23
2022-09-02T06:18:47.987Z,1.40
2022-09-02T06:21:16.198Z,1.30
2022-09-02T06:23:43.730Z,1.25
2022-09-02T06:26:12.942Z,1.45
2022-09-02T06:28:40.004Z,1.20
2022-09-02T06:31:19.298Z,1.73
2022-09-02T06:33:47.777Z,1.33
2022-09-02T06:36:17.902Z,2.10
2022-09-02T06:38:48.487Z,2.10
2022-09-02T06:41:18.230Z,1.70
2022-09-02T06:43:45.556Z,1.60
2022-09-02T06:46:19.505Z,1.30
2022-09-02T06:48:46.957Z,1.83
2022-09-02T06:51:38.718Z,1.30
2022-09-02T06:54:08.764Z,1.63
2022-09-02T06:56:40.366Z,1.25
2022-09-02T06:59:09.250Z,1.75
2022-09-02T07:01:37.252Z,1.52
2022-09-02T07:04:23.469Z,1.83
2022-09-02T07:06:55.044Z,1.80
2022-09-02T07:09:31.488Z,2.80
2022-09-02T07:12:05.113Z,2.25
2022-09-02T07:14:37.517Z,1.77
2022-09-02T07:17:04.371Z,1.98
2022-09-02T07:19:31.249Z,1.70
2022-09-02T07:21:58.304Z,1.67
2022-09-02T07:24:25.195Z,1.90
2022-09-02T07:26:55.378Z,1.83
2022-09-02T07:29:22.989Z,1.80
2022-09-02T07:31:50.226Z,2.33
2022-09-02T07:34:18.929Z,1.83
2022-09-02T07:36:46.572Z,2.30
2022-09-02T07:39:15.209Z,14.57
2022-09-02T07:41:44.977Z,2.40
2022-09-02T07:44:12.404Z,2.33
2022-09-02T07:46:39.984Z,2.60
2022-09-02T07:49:10.149Z,2.47
2022-09-02T07:51:40.130Z,2.55
2022-09-02T07:54:09.323Z,2.10
2022-09-02T07:56:36.289Z,1.60
2022-09-02T07:59:03.312Z,1.60
2022-09-02T08:01:31.346Z,1.95
2022-09-02T08:04:00.459Z,1.90
2022-09-02T08:06:34.911Z,1.92
2022-09-02T08:09:04.559Z,2.15
2022-09-02T08:11:32.926Z,1.65
2022-09-02T08:14:00.916Z,2.00
2022-09-02T08:16:29.198Z,1.48
2022-09-02T08:18:56.194Z,1.85
2022-09-02T08:21:23.145Z,2.55
2022-09-02T08:23:50.831Z,2.15
2022-09-02T08:26:18.676Z,1.95
2022-09-02T08:28:45.885Z,2.30
2022-09-02T08:31:12.723Z,1.92
2022-09-02T08:33:39.628Z,3.15
2022-09-02T08:36:12.080Z,2.28
2022-09-02T08:38:39.134Z,2.58
2022-09-02T08:41:34.339Z,2.22
2022-09-02T08:44:02.061Z,5.68
2022-09-02T08:46:32.418Z,2.65
2022-09-02T08:49:04.435Z,2.30
2022-09-02T08:51:37.647Z,3.80
2022-09-02T08:54:22.590Z,2.45
2022-09-02T08:56:51.863Z,3.05
2022-09-02T08:59:22.983Z,3.83
2022-09-02T09:02:28.728Z,2.10
2022-09-02T09:05:25.936Z,2.53
2022-09-02T09:08:02.743Z,12.45
2022-09-02T09:10:38.631Z,3.47
2022-09-02T09:13:47.299Z,2.00
2022-09-02T09:16:35.010Z,2.00
2022-09-02T09:19:15.398Z,2.22
2022-09-02T09:21:45.061Z,2.30
2022-09-02T09:24:28.236Z,1.75
2022-09-02T09:26:56.176Z,2.10
2022-09-02T09:29:23.499Z,1.90
2022-09-02T09:31:57.553Z,1.25
2022-09-02T09:34:25.919Z,1.70
2022-09-02T09:36:56.695Z,1.90
2022-09-02T09:39:36.244Z,1.75
2022-09-02T09:42:15.059Z,2.00
2022-09-02T09:44:46.493Z,1.63
2022-09-02T09:47:20.735Z,1.40
2022-09-02T09:49:50.578Z,1.63
2022-09-02T09:52:28.503Z,1.30
2022-09-02T09:55:12.687Z,1.42
2022-09-02T09:57:45.799Z,1.50
2022-09-02T10:00:29.334Z,1.80
2022-09-02T10:03:00.851Z,1.40
2022-09-02T10:05:33.527Z,2.53
2022-09-02T10:11:06.677Z,1.02
2022-09-02T10:13:35.853Z,2.03
2022-09-02T10:16:26.360Z,1.10
2022-09-02T10:19:00.876Z,1.17
2022-09-02T10:21:55.497Z,2.70
2022-09-02T10:24:52.978Z,1.02
2022-09-02T10:28:04.422Z,1.50
2022-09-02T10:30:43.013Z,1.63
2022-09-02T10:33:19.355Z,1.63
2022-09-02T10:35:59.186Z,1.02
2022-09-02T10:38:51.893Z,0.95
2022-09-02T10:41:32.121Z,1.20
2022-09-02T10:44:13.670Z,1.20
2022-09-02T10:47:00.846Z,1.48
2022-09-02T10:49:45.729Z,1.20
2022-09-02T10:52:32.902Z,1.20
2022-09-02T10:55:15.075Z,1.10
2022-09-02T10:57:48.234Z,1.33
2022-09-02T11:00:18.364Z,2.13
2022-09-02T11:02:54.584Z,5.32
2022-09-02T11:05:45.591Z,1.30
2022-09-02T11:08:15.302Z,0.82
2022-09-02T11:10:56.178Z,1.33
2022-09-02T11:13:41.479Z,1.15
2022-09-02T11:16:28.718Z,1.13
2022-09-02T11:19:16.540Z,1.25
2022-09-02T11:22:03.487Z,1.17
2022-09-02T11:24:43.264Z,0.80
2022-09-02T11:27:41.519Z,0.80
2022-09-02T11:30:18.469Z,0.80
2022-09-02T11:32:51.752Z,1.05
2022-09-02T11:35:24.884Z,0.88
2022-09-02T11:38:01.829Z,0.82
2022-09-02T11:40:44.902Z,0.70
2022-09-02T11:46:06.288Z,0.98
2022-09-02T11:48:52.722Z,1.13
2022-09-02T11:51:42.024Z,0.63
2022-09-02T11:54:12.298Z,0.80
2022-09-02T11:56:45.621Z,1.27
2022-09-02T11:59:23.365Z,0.60
2022-09-02T12:01:56.337Z,0.70
2022-09-02T12:04:58.429Z,0.80
2022-09-02T12:07:15.450Z,1.20
2022-09-02T12:09:47.629Z,1.40
2022-09-02T12:15:04.040Z,1.13
2022-09-02T12:17:44.754Z,1.10
2022-09-02T12:20:39.070Z,0.90
2022-09-02T12:23:08.102Z,0.70
2022-09-02T12:25:40.588Z,0.90
2022-09-02T12:31:05.645Z,0.90
2022-09-02T12:33:44.913Z,0.82
2022-09-02T12:36:33.153Z,0.80
2022-09-02T12:39:20.680Z,1.00
2022-09-02T12:41:59.801Z,0.80
2022-09-02T12:44:37.291Z,0.75
2022-09-02T12:47:11.413Z,1.10
2022-09-02T12:49:46.018Z,1.20
2022-09-02T12:52:37.250Z,3.78
2022-09-02T12:55:13.769Z,2.10
2022-09-02T12:57:44.055Z,1.00
2022-09-02T13:00:17.070Z,1.10
2022-09-02T13:03:03.790Z,1.15
2022-09-02T13:05:41.181Z,1.20
2022-09-02T13:08:31.031Z,1.20
2022-09-02T13:11:32.655Z,1.27
2022-09-02T13:14:14.034Z,1.02
2022-09-02T13:17:33.032Z,1.05
2022-09-02T13:20:24.580Z,1.25
2022-09-02T13:23:01.784Z,17.67
2022-09-02T13:25:46.771Z,5.78
2022-09-02T13:28:25.343Z,2.28
2022-09-02T13:31:04.538Z,1.17
2022-09-02T13:33:31.741Z,2.33
2022-09-02T13:35:59.926Z,1.10
2022-09-02T13:38:34.546Z,1.10
2022-09-02T13:41:02.932Z,1.95
2022-09-02T13:43:30.261Z,1.40
2022-09-02T13:46:05.122Z,1.20
2022-09-02T13:48:40.204Z,2.00
2022-09-02T13:51:14.326Z,1.35
2022-09-02T13:54:04.938Z,1.40
2022-09-02T13:56:33.423Z,1.45
2022-09-02T13:59:03.021Z,1.35
2022-09-02T14:01:30.595Z,1.15
2022-09-02T14:04:02.344Z,1.42
2022-09-02T14:06:36.967Z,1.40
2022-09-02T14:09:08.850Z,2.00
2022-09-02T14:11:43.365Z,2.10
2022-09-02T14:14:23.929Z,1.77
2022-09-02T14:16:52.969Z,2.20
2022-09-02T14:19:21.551Z,2.88
2022-09-02T14:21:58.232Z,1.92
2022-09-02T14:24:30.843Z,2.20
2022-09-02T14:27:00.323Z,1.52
2022-09-02T14:29:32.347Z,1.55
2022-09-02T14:32:14.601Z,2.08
2022-09-02T14:34:45.181Z,1.73
2022-09-02T14:37:28.765Z,1.90
2022-09-02T14:40:11.669Z,1.58
2022-09-02T14:42:56.584Z,1.42
2022-09-02T14:45:35.282Z,1.20
2022-09-02T14:48:11.048Z,1.80
2022-09-02T14:50:40.090Z,1.30
2022-09-02T14:53:10.476Z,1.45
2022-09-02T14:55:43.884Z,1.70
2022-09-02T14:58:11.562Z,1.55
2022-09-02T15:00:39.406Z,1.23
2022-09-02T15:03:07.309Z,1.67
2022-09-02T15:05:34.200Z,1.65
2022-09-02T15:08:01.155Z,2.20
2022-09-02T15:10:28.130Z,2.47
2022-09-02T15:12:57.456Z,2.05
2022-09-02T15:15:25.245Z,2.85
2022-09-02T15:17:52.410Z,2.35
2022-09-02T15:20:19.614Z,3.85
2022-09-02T15:22:46.427Z,2.30
2022-09-02T15:25:14.511Z,2.80
2022-09-02T15:27:41.503Z,2.92
2022-09-02T15:30:09.664Z,2.72
2022-09-02T15:32:38.018Z,2.90
2022-09-02T15:35:07.046Z,2.63
2022-09-02T15:37:37.563Z,2.38
2022-09-02T15:40:09.255Z,2.95
2022-09-02T15:42:40.190Z,3.42
2022-09-02T15:45:11.364Z,3.55
2022-09-02T15:47:38.802Z,3.78
2022-09-02T15:50:06.068Z,4.43
2022-09-02T15:52:34.618Z,3.80
2022-09-02T15:55:01.581Z,4.30
2022-09-02T15:57:29.604Z,3.50
2022-09-02T15:59:56.585Z,3.08
2022-09-02T16:02:23.658Z,3.05
2022-09-02T16:04:50.602Z,3.50
2022-09-02T16:07:17.489Z,4.65
2022-09-02T16:09:44.822Z,3.13
2022-09-02T16:12:11.695Z,4.03
2022-09-02T16:14:38.639Z,3.72
2022-09-02T16:17:05.601Z,3.20
2022-09-02T16:19:32.407Z,3.65
2022-09-02T16:21:59.622Z,2.92
2022-09-02T16:24:26.861Z,3.08
2022-09-02T16:26:53.883Z,3.00
2022-09-02T16:29:21.241Z,2.97
2022-09-02T16:32:02.233Z,3.28
2022-09-02T16:34:36.194Z,2.90
2022-09-02T16:37:03.007Z,3.10
2022-09-02T16:39:29.951Z,2.47
2022-09-02T16:41:57.321Z,2.47
2022-09-02T16:44:25.406Z,2.33
2022-09-02T16:46:53.482Z,2.33
2022-09-02T16:49:22.447Z,2.70
2022-09-02T16:51:57.976Z,2.80
2022-09-02T16:54:31.478Z,2.08
2022-09-02T16:57:01.080Z,2.55
2022-09-02T16:59:28.122Z,2.65
2022-09-02T17:01:55.192Z,2.47
2022-09-02T17:04:22.128Z,2.97
2022-09-02T17:06:49.109Z,3.58
2022-09-02T17:09:16.563Z,3.20
2022-09-02T17:11:45.542Z,2.92
2022-09-02T17:14:16.200Z,4.20
2022-09-02T17:16:49.176Z,3.97
2022-09-02T17:19:21.825Z,4.90
2022-09-02T17:21:53.470Z,4.68
2022-09-02T17:24:23.984Z,6.35
2022-09-02T17:26:54.586Z,4.82
2022-09-02T17:29:47.908Z,4.45
2022-09-02T17:32:10.590Z,4.88
2022-09-02T17:34:37.796Z,5.40
2022-09-02T17:37:05.506Z,5.93
2022-09-02T17:39:34.244Z,5.05
2022-09-02T17:42:02.351Z,4.55
2022-09-02T17:44:38.735Z,4.80
2022-09-02T17:47:17.611Z,5.10
2022-09-02T17:49:45.075Z,4.78
2022-09-02T17:52:22.207Z,4.63
2022-09-02T17:54:51.111Z,6.05
2022-09-02T17:57:46.232Z,5.85
2022-09-02T18:00:16.281Z,5.20
2022-09-02T18:03:00.983Z,5.80
2022-09-02T18:05:49.137Z,4.75
2022-09-02T18:08:23.607Z,5.50
2022-09-02T18:10:58.054Z,5.60
2022-09-02T18:13:31.465Z,5.47
2022-09-02T18:16:29.442Z,5.18
2022-09-02T18:19:08.302Z,5.93
2022-09-02T18:22:06.341Z,6.18
2022-09-02T18:24:58.766Z,5.95
2022-09-02T18:27:34.847Z,6.03
2022-09-02T18:30:12.272Z,6.35
2022-09-02T18:33:07.416Z,5.63
2022-09-02T18:35:55.711Z,5.78
2022-09-02T18:38:38.876Z,4.65
2022-09-02T18:41:42.465Z,5.60
2022-09-02T18:44:23.409Z,5.15
2022-09-02T18:46:59.642Z,5.95
2022-09-02T18:49:31.216Z,5.45
2022-09-02T18:52:00.807Z,5.88
2022-09-02T18:54:34.239Z,4.75
2022-09-02T18:57:07.924Z,4.93
2022-09-02T18:59:43.310Z,5.82
2022-09-02T19:02:26.952Z,5.57
2022-09-02T19:04:57.608Z,6.22
2022-09-02T19:07:42.806Z,6.72
2022-09-02T19:10:10.213Z,6.60
2022-09-02T19:12:39.362Z,6.80
2022-09-02T19:15:13.127Z,7.22
2022-09-02T19:17:41.097Z,8.02
2022-09-02T19:20:09.237Z,7.90
2022-09-02T19:22:44.551Z,9.90
2022-09-02T19:25:17.651Z,8.20
2022-09-02T19:27:45.865Z,8.20
2022-09-02T19:30:22.613Z,8.63
2022-09-02T19:32:53.003Z,8.73
2022-09-02T19:35:23.174Z,10.70
2022-09-02T19:37:53.076Z,11.13
2022-09-02T19:40:26.674Z,11.77
2022-09-02T19:42:56.552Z,12.05
2022-09-02T19:45:23.910Z,12.20
2022-09-02T19:48:08.315Z,13.35
2022-09-02T19:50:43.670Z,12.88
2022-09-02T19:53:17.455Z,14.07
2022-09-02T19:55:44.442Z,17.33
2022-09-02T19:58:11.312Z,14.40
2022-09-02T20:00:43.021Z,13.70
2022-09-02T20:03:11.997Z,14.57
2022-09-02T20:05:41.018Z,15.57
2022-09-02T20:08:10.375Z,14.27
2022-09-02T20:10:39.713Z,18.27
2022-09-02T20:13:07.825Z,14.50
2022-09-02T20:15:38.689Z,17.30
2022-09-02T20:18:13.151Z,19.13
2022-09-02T20:20:45.727Z,19.10
2022-09-02T20:25:57.139Z,17.83
2022-09-02T20:28:34.605Z,18.52
2022-09-02T20:31:21.190Z,18.42
2022-09-02T20:34:05.014Z,17.55
2022-09-02T20:36:42.945Z,19.40
2022-09-02T20:39:38.297Z,17.60
2022-09-02T20:42:18.121Z,16.40
2022-09-02T20:45:05.932Z,16.35
2022-09-02T20:47:43.521Z,16.25
2022-09-02T20:50:29.823Z,16.35
2022-09-02T20:53:14.014Z,16.02
2022-09-02T20:56:05.359Z,17.23
2022-09-02T20:58:44.263Z,17.08
2022-09-02T21:01:18.707Z,16.70
2022-09-02T21:04:02.320Z,17.63
2022-09-02T21:06:34.875Z,15.55
2022-09-02T21:11:48.513Z,19.20
2022-09-02T21:14:28.530Z,13.20
2022-09-02T21:17:07.511Z,13.27
2022-09-02T21:19:42.074Z,14.10
2022-09-02T21:22:19.562Z,14.02
2022-09-02T21:25:25.878Z,11.07
2022-09-02T21:28:03.983Z,11.05
2022-09-02T21:30:48.089Z,10.07
2022-09-02T21:33:18.826Z,10.82
2022-09-02T21:35:54.162Z,11.85
2022-09-02T21:38:30.071Z,8.68
2022-09-02T21:41:04.128Z,8.40
2022-09-02T21:44:01.794Z,9.25
2022-09-02T21:46:47.038Z,7.85
2022-09-02T21:49:26.604Z,7.28
2022-09-02T21:52:15.608Z,6.47
2022-09-02T21:55:02.034Z,6.15
2022-09-02T21:57:39.028Z,5.90
2022-09-02T22:00:08.627Z,7.07
2022-09-02T22:02:36.095Z,6.35
2022-09-02T22:05:13.857Z,6.72
2022-09-02T22:07:55.769Z,6.95
2022-09-02T22:10:29.562Z,6.13
2022-09-02T22:13:03.983Z,6.93
2022-09-02T22:15:44.403Z,6.13
2022-09-02T22:18:17.124Z,5.53
2022-09-02T22:20:47.902Z,5.70
2022-09-02T22:23:25.920Z,5.07
2022-09-02T22:26:17.187Z,5.80
2022-09-02T22:28:49.285Z,4.97
2022-09-02T22:31:21.760Z,5.43
2022-09-02T22:36:35.301Z,5.13
2022-09-02T22:39:05.205Z,5.05
2022-09-02T22:41:40.152Z,4.60
2022-09-02T22:44:15.031Z,4.32
2022-09-02T22:46:57.588Z,4.10
2022-09-02T22:49:50.829Z,3.97
2022-09-02T22:52:56.509Z,3.63
2022-09-02T22:55:48.231Z,4.43
2022-09-02T22:58:39.038Z,4.38
2022-09-02T23:01:12.581Z,3.70
2022-09-02T23:04:11.605Z,5.47
2022-09-02T23:06:41.762Z,4.55
2022-09-02T23:09:09.616Z,3.80
2022-09-02T23:11:53.328Z,3.45
2022-09-02T23:14:39.901Z,3.95
2022-09-02T23:17:38.177Z,3.97
2022-09-02T23:20:16.506Z,3.80
2022-09-02T23:22:54.711Z,3.70
2022-09-02T23:25:40.908Z,4.20
2022-09-02T23:28:19.465Z,3.80
2022-09-02T23:31:05.816Z,3.63
2022-09-02T23:33:51.172Z,3.95
2022-09-02T23:36:35.419Z,3.60
2022-09-02T23:39:28.174Z,4.00
2022-09-02T23:42:02.776Z,4.15
2022-09-02T23:44:33.361Z,4.35
2022-09-02T23:47:21.515Z,4.22
2022-09-02T23:50:04.809Z,5.38
2022-09-02T23:52:47.125Z,4.03
2022-09-02T23:55:32.222Z,4.90
2022-09-02T23:58:27.850Z,5.20
